createdAt,value
2023-05-09T00:00:00.120Z,99.90
2023-05-09T00:02:28.644Z,99.90
2023-05-09T00:04:56.837Z,99.90
2023-05-09T00:07:23.745Z,99.90
2023-05-09T00:09:50.827Z,99.90
2023-05-09T00:12:17.575Z,99.90
2023-05-09T00:14:45.663Z,99.90
2023-05-09T00:17:14.574Z,99.90
2023-05-09T00:19:41.905Z,99.90
2023-05-09T00:22:09.340Z,99.90
2023-05-09T00:24:36.594Z,99.90
2023-05-09T00:27:03.510Z,99.90
2023-05-09T00:29:30.512Z,99.90
2023-05-09T00:31:57.445Z,99.90
2023-05-09T00:34:24.291Z,99.90
2023-05-09T00:36:51.116Z,99.90
2023-05-09T00:39:17.971Z,99.90
2023-05-09T00:41:44.793Z,99.90
2023-05-09T00:44:11.684Z,99.90
2023-05-09T00:46:39.942Z,99.90
2023-05-09T00:49:08.191Z,99.90
2023-05-09T00:51:36.806Z,99.90
2023-05-09T00:54:06.510Z,99.90
2023-05-09T00:56:35.512Z,99.90
2023-05-09T00:59:02.515Z,99.90
2023-05-09T01:01:29.573Z,99.90
2023-05-09T01:03:56.743Z,99.90
2023-05-09T01:06:33.169Z,99.90
2023-05-09T01:09:24.332Z,99.90
2023-05-09T01:12:13.977Z,99.90
2023-05-09T01:15:04.415Z,99.90
2023-05-09T01:17:37.565Z,99.90
2023-05-09T01:20:13.174Z,99.90
2023-05-09T01:22:48.603Z,99.90
2023-05-09T01:25:33.891Z,99.90
2023-05-09T01:28:19.202Z,99.90
2023-05-09T01:30:48.206Z,99.90
2023-05-09T01:33:20.702Z,99.90
2023-05-09T01:35:57.900Z,99.90
2023-05-09T01:38:26.211Z,99.90
2023-05-09T01:40:54.979Z,99.90
2023-05-09T01:43:24.651Z,99.90
2023-05-09T01:45:52.532Z,99.90
2023-05-09T01:48:21.708Z,99.90
2023-05-09T01:50:49.162Z,99.90
2023-05-09T01:53:17.612Z,99.90
2023-05-09T01:55:45.998Z,99.90
2023-05-09T01:58:14.692Z,99.90
2023-05-09T02:00:42.949Z,99.90
2023-05-09T02:03:10.010Z,99.90
2023-05-09T02:05:37.467Z,99.90
2023-05-09T02:08:04.774Z,99.90
2023-05-09T02:10:32.803Z,99.90
2023-05-09T02:12:59.608Z,99.90
2023-05-09T02:15:26.728Z,99.90
2023-05-09T02:17:53.763Z,99.90
2023-05-09T02:20:20.702Z,99.90
2023-05-09T02:22:48.264Z,99.90
2023-05-09T02:25:16.094Z,99.90
2023-05-09T02:27:46.047Z,99.90
2023-05-09T02:30:19.134Z,99.90
2023-05-09T02:32:49.040Z,99.90
2023-05-09T02:35:18.246Z,99.90
2023-05-09T02:37:46.231Z,99.90
2023-05-09T02:40:13.914Z,99.90
2023-05-09T02:42:40.976Z,99.90
2023-05-09T02:45:09.839Z,99.90
2023-05-09T02:47:36.816Z,99.90
2023-05-09T02:50:04.843Z,99.90
2023-05-09T02:52:31.963Z,99.90
2023-05-09T02:54:58.799Z,99.90
2023-05-09T02:57:25.620Z,99.90
2023-05-09T02:59:52.383Z,99.90
2023-05-09T03:02:19.334Z,99.90
2023-05-09T03:04:46.735Z,99.90
2023-05-09T03:07:13.948Z,99.90
2023-05-09T03:09:41.362Z,99.90
2023-05-09T03:12:08.386Z,99.90
2023-05-09T03:14:35.283Z,99.90
2023-05-09T03:17:02.262Z,99.90
2023-05-09T03:19:29.118Z,99.90
2023-05-09T03:21:55.914Z,99.90
2023-05-09T03:24:23.258Z,99.90
2023-05-09T03:26:50.290Z,99.90
2023-05-09T03:29:17.085Z,99.90
2023-05-09T03:31:43.969Z,99.90
2023-05-09T03:34:15.142Z,99.90
2023-05-09T03:36:45.613Z,99.90
2023-05-09T03:39:12.638Z,99.90
2023-05-09T03:41:39.813Z,99.90
2023-05-09T03:44:06.985Z,99.90
2023-05-09T03:46:35.014Z,99.90
2023-05-09T03:49:02.035Z,99.90
2023-05-09T03:51:28.962Z,99.90
2023-05-09T03:53:56.270Z,99.90
2023-05-09T03:56:23.135Z,99.90
2023-05-09T03:58:50.054Z,99.90
2023-05-09T04:01:17.069Z,99.90
2023-05-09T04:03:44.326Z,99.90
2023-05-09T04:06:11.478Z,99.90
2023-05-09T04:08:38.462Z,99.90
2023-05-09T04:11:06.090Z,99.90
2023-05-09T04:13:33.973Z,99.90
2023-05-09T04:16:01.601Z,99.90
2023-05-09T04:18:28.483Z,99.90
2023-05-09T04:20:55.373Z,99.90
2023-05-09T04:23:22.177Z,99.90
2023-05-09T04:25:51.378Z,99.90
2023-05-09T04:28:18.404Z,99.90
2023-05-09T04:30:45.826Z,99.90
2023-05-09T04:33:13.126Z,99.90
2023-05-09T04:35:41.246Z,99.90
2023-05-09T04:38:08.295Z,99.90
2023-05-09T04:40:35.589Z,99.90
2023-05-09T04:43:02.493Z,99.90
2023-05-09T04:45:29.329Z,99.90
2023-05-09T04:47:56.185Z,99.90
2023-05-09T04:50:23.022Z,99.90
2023-05-09T04:52:49.923Z,99.90
2023-05-09T04:55:16.825Z,99.90
2023-05-09T04:57:43.821Z,99.90
2023-05-09T05:00:11.991Z,99.90
2023-05-09T05:02:39.021Z,99.90
2023-05-09T05:05:12.046Z,99.90
2023-05-09T05:07:39.658Z,99.90
2023-05-09T05:10:07.146Z,99.90
2023-05-09T05:12:33.869Z,99.90
2023-05-09T05:15:00.679Z,99.90
2023-05-09T05:17:29.519Z,99.90
2023-05-09T05:19:56.500Z,99.90
2023-05-09T05:22:24.296Z,99.90
2023-05-09T05:24:51.185Z,99.90
2023-05-09T05:27:17.962Z,99.90
2023-05-09T05:29:45.706Z,99.90
2023-05-09T05:32:12.603Z,99.90
2023-05-09T05:34:39.774Z,99.90
2023-05-09T05:37:06.539Z,99.90
2023-05-09T05:39:33.671Z,99.90
2023-05-09T05:42:00.762Z,99.90
2023-05-09T05:44:27.510Z,99.90
2023-05-09T05:46:54.363Z,99.90
2023-05-09T05:49:21.077Z,99.90
2023-05-09T05:51:47.807Z,99.90
2023-05-09T05:54:14.569Z,99.90
2023-05-09T05:56:41.287Z,99.90
2023-05-09T05:59:08.049Z,99.90
2023-05-09T06:01:34.801Z,99.90
2023-05-09T06:04:01.565Z,99.90
2023-05-09T06:06:28.576Z,99.90
2023-05-09T06:08:55.629Z,99.90
2023-05-09T06:11:23.235Z,99.90
2023-05-09T06:13:49.941Z,99.90
2023-05-09T06:16:19.962Z,99.90
2023-05-09T06:18:48.000Z,99.90
2023-05-09T06:21:14.752Z,99.90
2023-05-09T06:23:51.038Z,99.90
2023-05-09T06:26:28.169Z,99.90
2023-05-09T06:28:55.050Z,99.90
2023-05-09T06:31:22.023Z,99.90
2023-05-09T06:33:49.798Z,99.90
2023-05-09T06:36:16.545Z,99.90
2023-05-09T06:38:43.287Z,99.90
2023-05-09T06:41:10.084Z,99.90
2023-05-09T06:43:36.843Z,99.90
2023-05-09T06:46:03.975Z,99.90
2023-05-09T06:48:30.818Z,99.90
2023-05-09T06:50:57.552Z,99.90
2023-05-09T06:53:24.340Z,99.90
2023-05-09T06:55:51.114Z,99.90
2023-05-09T06:58:17.955Z,99.90
2023-05-09T07:00:44.649Z,99.90
2023-05-09T07:03:11.739Z,99.90
2023-05-09T07:05:38.536Z,99.90
2023-05-09T07:08:05.439Z,99.90
2023-05-09T07:10:32.471Z,99.90
2023-05-09T07:12:59.233Z,99.90
2023-05-09T07:15:39.819Z,99.90
2023-05-09T07:18:08.645Z,99.90
2023-05-09T07:20:35.434Z,99.90
2023-05-09T07:23:04.098Z,99.90
2023-05-09T07:25:31.106Z,99.90
2023-05-09T07:27:58.479Z,99.90
2023-05-09T07:30:25.464Z,99.90
2023-05-09T07:32:52.452Z,99.90
2023-05-09T07:35:20.434Z,99.90
2023-05-09T07:37:47.161Z,99.90
2023-05-09T07:40:14.548Z,99.90
2023-05-09T07:42:45.094Z,99.90
2023-05-09T07:45:12.017Z,99.90
2023-05-09T07:47:38.885Z,99.90
2023-05-09T07:50:06.328Z,99.90
2023-05-09T07:52:33.146Z,99.90
2023-05-09T07:54:59.853Z,99.90
2023-05-09T07:57:26.790Z,99.90
2023-05-09T07:59:53.483Z,99.90
2023-05-09T08:02:20.496Z,99.90
2023-05-09T08:04:49.075Z,99.90
2023-05-09T08:07:16.198Z,99.90
2023-05-09T08:09:42.936Z,99.90
2023-05-09T08:12:09.754Z,99.90
2023-05-09T08:14:36.555Z,99.90
2023-05-09T08:17:03.346Z,99.90
2023-05-09T08:19:30.230Z,99.90
2023-05-09T08:21:56.923Z,99.90
2023-05-09T08:24:23.713Z,99.90
2023-05-09T08:26:50.615Z,99.90
2023-05-09T08:29:17.856Z,99.90
2023-05-09T08:31:44.717Z,99.50
2023-05-09T08:34:11.559Z,98.80
2023-05-09T08:36:38.303Z,98.30
2023-05-09T08:39:05.012Z,97.80
2023-05-09T08:41:35.910Z,97.10
2023-05-09T08:44:03.021Z,95.70
2023-05-09T08:46:40.771Z,95.30
2023-05-09T08:49:08.344Z,95.20
2023-05-09T08:51:38.282Z,94.90
2023-05-09T08:54:05.617Z,94.50
2023-05-09T08:56:32.449Z,94.00
2023-05-09T08:58:59.248Z,94.20
2023-05-09T09:01:26.986Z,93.70
2023-05-09T09:03:54.200Z,93.40
2023-05-09T09:06:23.305Z,93.70
2023-05-09T09:08:51.008Z,94.00
2023-05-09T09:11:18.709Z,94.50
2023-05-09T09:13:47.649Z,94.40
2023-05-09T09:16:22.199Z,93.90
2023-05-09T09:18:52.417Z,93.90
2023-05-09T09:21:20.777Z,93.80
2023-05-09T09:23:48.975Z,94.00
2023-05-09T09:26:16.461Z,93.80
2023-05-09T09:28:43.436Z,93.10
2023-05-09T09:31:21.269Z,92.70
2023-05-09T09:33:48.947Z,92.60
2023-05-09T09:36:15.787Z,92.50
2023-05-09T09:38:45.797Z,92.40
2023-05-09T09:41:13.709Z,92.00
2023-05-09T09:43:45.623Z,91.80
2023-05-09T09:46:16.383Z,91.40
2023-05-09T09:48:51.231Z,91.40
2023-05-09T09:51:18.726Z,91.40
2023-05-09T09:53:45.591Z,91.30
2023-05-09T09:56:12.365Z,90.80
2023-05-09T09:58:39.384Z,90.80
2023-05-09T10:01:07.753Z,90.60
2023-05-09T10:03:42.489Z,90.20
2023-05-09T10:06:16.499Z,90.00
2023-05-09T10:08:47.140Z,90.00
2023-05-09T10:11:14.624Z,89.30
2023-05-09T10:13:42.616Z,89.50
2023-05-09T10:16:11.371Z,88.90
2023-05-09T10:18:41.203Z,88.60
2023-05-09T10:21:11.317Z,88.20
2023-05-09T10:23:41.069Z,87.10
2023-05-09T10:26:17.886Z,87.10
2023-05-09T10:28:47.790Z,88.60
2023-05-09T10:31:27.609Z,88.70
2023-05-09T10:33:58.713Z,87.90
2023-05-09T10:36:25.487Z,87.50
2023-05-09T10:38:54.910Z,87.70
2023-05-09T10:41:22.365Z,87.40
2023-05-09T10:43:49.469Z,86.80
2023-05-09T10:46:16.873Z,86.50
2023-05-09T10:48:44.762Z,86.00
2023-05-09T10:51:12.788Z,86.80
2023-05-09T10:53:44.354Z,86.60
2023-05-09T10:56:27.501Z,87.30
2023-05-09T10:58:54.809Z,86.50
2023-05-09T11:01:39.141Z,85.60
2023-05-09T11:04:17.367Z,86.20
2023-05-09T11:06:52.344Z,85.00
2023-05-09T11:09:35.826Z,85.00
2023-05-09T11:12:05.888Z,85.40
2023-05-09T11:14:43.133Z,85.10
2023-05-09T11:17:12.723Z,83.90
2023-05-09T11:19:45.552Z,84.80
2023-05-09T11:22:16.997Z,83.90
2023-05-09T11:24:47.616Z,84.40
2023-05-09T11:27:15.927Z,84.00
2023-05-09T11:29:59.557Z,82.90
2023-05-09T11:32:32.604Z,81.20
2023-05-09T11:35:17.792Z,81.40
2023-05-09T11:37:46.395Z,81.80
2023-05-09T11:40:14.870Z,81.80
2023-05-09T11:42:47.145Z,81.30
2023-05-09T11:45:14.903Z,79.80
2023-05-09T11:47:41.960Z,79.70
2023-05-09T11:50:10.476Z,78.60
2023-05-09T11:52:41.068Z,76.30
2023-05-09T11:55:16.260Z,74.70
2023-05-09T11:57:46.024Z,73.30
2023-05-09T12:00:15.210Z,71.30
2023-05-09T12:02:45.358Z,68.30
2023-05-09T12:05:18.506Z,65.00
2023-05-09T12:07:46.068Z,61.30
2023-05-09T12:10:19.601Z,59.10
2023-05-09T12:12:50.948Z,57.50
2023-05-09T12:15:19.342Z,56.40
2023-05-09T12:17:49.642Z,54.20
2023-05-09T12:20:18.191Z,53.00
2023-05-09T12:22:45.060Z,51.80
2023-05-09T12:25:12.485Z,50.60
2023-05-09T12:27:40.725Z,48.90
2023-05-09T12:30:10.235Z,48.10
2023-05-09T12:32:40.315Z,47.10
2023-05-09T12:35:09.608Z,47.20
2023-05-09T12:37:36.512Z,47.00
2023-05-09T12:40:08.635Z,46.50
2023-05-09T12:42:36.095Z,45.90
2023-05-09T12:45:03.808Z,45.20
2023-05-09T12:47:31.886Z,44.80
2023-05-09T12:50:04.310Z,44.10
2023-05-09T12:52:36.753Z,44.30
2023-05-09T12:55:11.486Z,43.40
2023-05-09T12:57:39.671Z,43.10
2023-05-09T13:00:09.420Z,43.40
2023-05-09T13:02:42.508Z,42.90
2023-05-09T13:05:11.004Z,43.00
2023-05-09T13:07:46.127Z,42.70
2023-05-09T13:10:19.515Z,42.60
2023-05-09T13:12:48.439Z,41.70
2023-05-09T13:15:17.085Z,41.40
2023-05-09T13:17:44.187Z,40.80
2023-05-09T13:20:11.059Z,39.80
2023-05-09T13:22:38.039Z,39.60
2023-05-09T13:25:05.393Z,39.50
2023-05-09T13:27:32.952Z,39.60
2023-05-09T13:30:00.024Z,39.00
2023-05-09T13:32:26.870Z,38.90
2023-05-09T13:34:53.615Z,38.60
2023-05-09T13:37:21.494Z,38.70
2023-05-09T13:39:48.834Z,38.00
2023-05-09T13:42:16.774Z,37.00
2023-05-09T13:44:45.168Z,36.80
2023-05-09T13:47:12.005Z,36.50
2023-05-09T13:49:38.724Z,36.50
2023-05-09T13:52:06.699Z,36.80
2023-05-09T13:54:35.234Z,36.80
2023-05-09T13:57:05.401Z,36.90
2023-05-09T13:59:32.473Z,36.40
2023-05-09T14:02:00.373Z,36.60
2023-05-09T14:04:28.186Z,36.20
2023-05-09T14:06:58.878Z,36.20
2023-05-09T14:09:26.352Z,35.90
2023-05-09T14:11:53.701Z,36.20
2023-05-09T14:14:21.626Z,36.60
2023-05-09T14:16:48.931Z,36.60
2023-05-09T14:19:16.630Z,36.00
2023-05-09T14:21:44.780Z,35.70
2023-05-09T14:24:14.978Z,35.80
2023-05-09T14:26:42.686Z,36.30
2023-05-09T14:29:10.053Z,36.90
2023-05-09T14:31:37.603Z,37.40
2023-05-09T14:34:05.360Z,38.60
2023-05-09T14:36:32.797Z,38.50
2023-05-09T14:38:59.609Z,37.70
2023-05-09T14:41:26.848Z,37.70
2023-05-09T14:43:53.673Z,38.10
2023-05-09T14:46:20.539Z,37.70
2023-05-09T14:48:47.602Z,37.40
2023-05-09T14:51:14.560Z,37.20
2023-05-09T14:53:42.648Z,37.50
2023-05-09T14:56:11.605Z,37.70
2023-05-09T14:58:38.667Z,37.80
2023-05-09T15:01:05.798Z,37.80
2023-05-09T15:03:32.889Z,37.90
2023-05-09T15:06:00.143Z,37.90
2023-05-09T15:08:27.209Z,38.10
2023-05-09T15:10:54.376Z,37.70
2023-05-09T15:13:22.538Z,37.40
2023-05-09T15:15:49.639Z,37.60
2023-05-09T15:18:18.449Z,37.20
2023-05-09T15:20:45.613Z,37.20
2023-05-09T15:23:13.317Z,37.60
2023-05-09T15:25:43.237Z,37.70
2023-05-09T15:28:10.931Z,37.80
2023-05-09T15:30:41.227Z,37.60
2023-05-09T15:33:08.870Z,37.90
2023-05-09T15:35:36.056Z,37.70
2023-05-09T15:38:03.457Z,37.60
2023-05-09T15:40:30.273Z,37.40
2023-05-09T15:42:57.666Z,37.00
2023-05-09T15:45:24.594Z,37.30
2023-05-09T15:47:51.543Z,37.20
2023-05-09T15:50:18.545Z,37.60
2023-05-09T15:52:45.735Z,37.10
2023-05-09T15:55:13.185Z,37.10
2023-05-09T15:57:40.136Z,37.90
2023-05-09T16:00:07.742Z,37.60
2023-05-09T16:02:35.362Z,37.70
2023-05-09T16:05:02.649Z,38.10
2023-05-09T16:07:31.439Z,38.50
2023-05-09T16:09:59.171Z,38.70
2023-05-09T16:12:26.885Z,39.10
2023-05-09T16:14:53.835Z,39.40
2023-05-09T16:17:20.615Z,39.70
2023-05-09T16:19:47.545Z,40.00
2023-05-09T16:22:14.282Z,40.20
2023-05-09T16:24:41.046Z,41.50
2023-05-09T16:27:07.868Z,42.00
2023-05-09T16:29:34.598Z,42.40
2023-05-09T16:32:01.502Z,43.10
2023-05-09T16:34:28.406Z,43.90
2023-05-09T16:36:55.172Z,44.40
2023-05-09T16:39:23.787Z,45.20
2023-05-09T16:41:51.056Z,45.80
2023-05-09T16:44:17.852Z,46.60
2023-05-09T16:46:44.646Z,47.00
2023-05-09T16:49:12.180Z,47.70
2023-05-09T16:51:39.288Z,47.90
2023-05-09T16:54:06.072Z,48.40
2023-05-09T16:56:33.467Z,48.90
2023-05-09T16:59:00.659Z,49.30
2023-05-09T17:01:27.814Z,49.20
2023-05-09T17:03:55.590Z,49.90
2023-05-09T17:06:22.347Z,49.90
2023-05-09T17:08:49.205Z,50.00
2023-05-09T17:11:16.404Z,50.30
2023-05-09T17:13:44.107Z,50.50
2023-05-09T17:16:11.490Z,50.90
2023-05-09T17:18:38.699Z,51.00
2023-05-09T17:21:06.650Z,51.50
2023-05-09T17:23:33.418Z,51.80
2023-05-09T17:26:00.193Z,52.00
2023-05-09T17:28:27.099Z,52.30
2023-05-09T17:30:53.958Z,52.80
2023-05-09T17:33:20.778Z,53.30
2023-05-09T17:35:49.584Z,53.70
2023-05-09T17:38:16.795Z,53.60
2023-05-09T17:40:44.352Z,54.10
2023-05-09T17:43:11.635Z,54.10
2023-05-09T17:45:38.428Z,54.10
2023-05-09T17:48:05.568Z,54.70
2023-05-09T17:50:32.985Z,55.00
2023-05-09T17:52:59.769Z,55.20
2023-05-09T17:55:26.511Z,55.50
2023-05-09T17:57:53.234Z,55.80
2023-05-09T18:00:20.117Z,55.90
2023-05-09T18:02:48.125Z,56.30
2023-05-09T18:05:15.013Z,56.50
2023-05-09T18:07:42.063Z,56.70
2023-05-09T18:10:10.097Z,57.10
2023-05-09T18:12:37.386Z,57.70
2023-05-09T18:15:04.993Z,57.80
2023-05-09T18:17:31.889Z,57.80
2023-05-09T18:19:58.780Z,58.30
2023-05-09T18:22:25.572Z,58.40
2023-05-09T18:24:52.931Z,59.00
2023-05-09T18:27:19.710Z,59.20
2023-05-09T18:29:47.553Z,59.30
2023-05-09T18:32:14.656Z,59.60
2023-05-09T18:34:42.075Z,59.90
2023-05-09T18:37:10.019Z,60.30
2023-05-09T18:39:37.356Z,60.70
2023-05-09T18:42:06.264Z,61.00
2023-05-09T18:44:32.999Z,61.30
2023-05-09T18:46:59.777Z,61.60
2023-05-09T18:49:26.851Z,61.80
2023-05-09T18:51:53.647Z,62.30
2023-05-09T18:54:20.679Z,63.00
2023-05-09T18:56:47.465Z,63.40
2023-05-09T18:59:16.300Z,63.70
2023-05-09T19:01:44.057Z,64.20
2023-05-09T19:04:11.258Z,64.40
2023-05-09T19:06:38.141Z,65.00
2023-05-09T19:09:05.630Z,65.00
2023-05-09T19:11:32.421Z,65.30
2023-05-09T19:13:59.334Z,65.80
2023-05-09T19:16:26.734Z,66.10
2023-05-09T19:18:57.792Z,66.50
2023-05-09T19:24:09.733Z,67.60
2023-05-09T19:26:36.479Z,67.80
2023-05-09T19:29:07.672Z,68.30
2023-05-09T19:31:36.407Z,68.60
2023-05-09T19:34:03.398Z,69.00
2023-05-09T19:36:30.168Z,69.40
2023-05-09T19:38:56.922Z,69.60
2023-05-09T19:41:23.657Z,69.80
2023-05-09T19:43:51.341Z,70.00
2023-05-09T19:46:19.137Z,70.30
2023-05-09T19:48:46.082Z,70.80
2023-05-09T19:51:15.187Z,71.90
2023-05-09T19:53:41.959Z,71.10
2023-05-09T19:56:09.501Z,71.20
2023-05-09T19:58:36.513Z,71.20
2023-05-09T20:01:05.200Z,71.10
2023-05-09T20:03:32.266Z,71.10
2023-05-09T20:08:46.839Z,71.80
2023-05-09T20:11:14.766Z,72.20
2023-05-09T20:13:42.110Z,72.50
2023-05-09T20:16:09.125Z,72.80
2023-05-09T20:18:35.992Z,73.20
2023-05-09T20:21:03.470Z,73.30
2023-05-09T20:23:31.153Z,73.70
2023-05-09T20:25:58.192Z,73.80
2023-05-09T20:28:25.278Z,74.20
2023-05-09T20:30:52.367Z,74.20
2023-05-09T20:33:19.363Z,74.70
2023-05-09T20:35:46.873Z,75.00
2023-05-09T20:38:13.893Z,75.20
2023-05-09T20:40:41.377Z,75.80
2023-05-09T20:43:08.672Z,76.10
2023-05-09T20:45:37.458Z,76.30
2023-05-09T20:48:06.635Z,76.70
2023-05-09T20:50:33.532Z,77.00
2023-05-09T20:53:00.310Z,77.00
2023-05-09T20:55:27.193Z,77.30
2023-05-09T20:57:54.188Z,77.40
2023-05-09T21:00:21.289Z,77.60
2023-05-09T21:02:49.349Z,77.80
2023-05-09T21:05:16.486Z,78.10
2023-05-09T21:07:43.670Z,78.20
2023-05-09T21:10:11.404Z,78.20
2023-05-09T21:12:38.149Z,78.50
2023-05-09T21:15:05.678Z,78.40
2023-05-09T21:17:33.684Z,78.40
2023-05-09T21:20:00.730Z,78.30
2023-05-09T21:22:27.546Z,78.30
2023-05-09T21:24:54.442Z,78.30
2023-05-09T21:27:21.289Z,78.30
2023-05-09T21:29:50.125Z,78.60
2023-05-09T21:32:17.352Z,78.50
2023-05-09T21:34:44.143Z,78.40
2023-05-09T21:37:10.896Z,78.80
2023-05-09T21:39:37.719Z,78.80
2023-05-09T21:42:04.792Z,79.00
2023-05-09T21:44:31.721Z,79.20
2023-05-09T21:46:59.003Z,79.40
2023-05-09T21:49:28.953Z,79.40
2023-05-09T21:51:56.017Z,79.60
2023-05-09T21:54:23.308Z,79.60
2023-05-09T21:56:50.324Z,79.70
2023-05-09T21:59:20.698Z,79.90
2023-05-09T22:01:48.625Z,79.90
2023-05-09T22:04:15.953Z,80.70
2023-05-09T22:06:44.006Z,80.00
2023-05-09T22:09:11.096Z,80.10
2023-05-09T22:11:38.040Z,80.20
2023-05-09T22:14:05.010Z,80.10
2023-05-09T22:16:32.016Z,80.20
2023-05-09T22:18:58.797Z,80.10
2023-05-09T22:21:26.770Z,80.30
2023-05-09T22:23:53.841Z,80.20
2023-05-09T22:26:21.358Z,80.10
2023-05-09T22:28:49.314Z,80.10
2023-05-09T22:31:16.279Z,80.50
2023-05-09T22:33:44.273Z,80.70
2023-05-09T22:36:11.003Z,80.90
2023-05-09T22:38:37.834Z,81.10
2023-05-09T22:41:04.737Z,81.20
2023-05-09T22:43:38.860Z,81.20
2023-05-09T22:46:06.832Z,81.10
2023-05-09T22:48:33.918Z,81.10
2023-05-09T22:51:00.954Z,81.20
2023-05-09T22:53:28.209Z,81.20
2023-05-09T22:55:55.378Z,81.30
2023-05-09T22:58:22.704Z,81.50
2023-05-09T23:00:50.865Z,81.50
2023-05-09T23:03:19.853Z,81.60
2023-05-09T23:05:46.882Z,81.70
2023-05-09T23:08:13.818Z,81.70
2023-05-09T23:10:40.574Z,81.90
2023-05-09T23:13:07.856Z,82.00
2023-05-09T23:15:35.499Z,82.20
2023-05-09T23:18:02.429Z,82.10
2023-05-09T23:20:29.538Z,82.30
2023-05-09T23:22:56.392Z,82.50
2023-05-09T23:25:23.270Z,82.50
2023-05-09T23:27:50.053Z,82.90
2023-05-09T23:30:17.118Z,82.90
2023-05-09T23:32:44.387Z,83.10
2023-05-09T23:35:11.141Z,83.20
2023-05-09T23:37:38.373Z,83.30
2023-05-09T23:40:05.932Z,83.60
2023-05-09T23:42:32.979Z,83.80
2023-05-09T23:44:59.894Z,83.90
2023-05-09T23:47:27.035Z,84.20
2023-05-09T23:49:54.057Z,84.60
2023-05-09T23:52:20.966Z,85.00
2023-05-09T23:54:47.994Z,85.20
2023-05-09T23:57:14.941Z,85.80
2023-05-09T23:59:42.591Z,86.00
